createdAt,value
2023-04-10T00:00:51.228Z,982.55
2023-04-10T00:01:51.288Z,982.56
2023-04-10T00:02:51.441Z,982.56
2023-04-10T00:03:51.305Z,982.49
2023-04-10T00:04:51.611Z,982.50
2023-04-10T00:05:51.165Z,982.49
2023-04-10T00:06:51.143Z,982.53
2023-04-10T00:07:51.176Z,982.54
2023-04-10T00:08:51.117Z,982.63
2023-04-10T00:09:51.100Z,982.64
2023-04-10T00:10:51.120Z,982.51
2023-04-10T00:11:51.078Z,982.55
2023-04-10T00:12:51.072Z,982.55
2023-04-10T00:13:51.242Z,982.56
2023-04-10T00:14:51.033Z,982.55
2023-04-10T00:15:51.029Z,982.60
2023-04-10T00:16:51.055Z,982.48
2023-04-10T00:17:51.093Z,982.56
2023-04-10T00:18:51.373Z,982.54
2023-04-10T00:19:50.963Z,982.54
2023-04-10T00:20:50.962Z,982.43
2023-04-10T00:21:50.940Z,982.45
2023-04-10T00:22:50.953Z,982.60
2023-04-10T00:23:50.911Z,982.51
2023-04-10T00:24:50.897Z,982.48
2023-04-10T00:25:50.882Z,982.53
2023-04-10T00:26:50.875Z,982.47
2023-04-10T00:27:50.851Z,982.51
2023-04-10T00:28:50.840Z,982.58
2023-04-10T00:29:50.848Z,982.53
2023-04-10T00:30:50.816Z,982.53
2023-04-10T00:31:50.829Z,982.50
2023-04-10T00:32:50.813Z,982.53
2023-04-10T00:33:50.802Z,982.62
2023-04-10T00:34:50.754Z,982.50
2023-04-10T00:35:50.770Z,982.45
2023-04-10T00:36:50.734Z,982.51
2023-04-10T00:37:50.728Z,982.47
2023-04-10T00:38:50.714Z,982.49
2023-04-10T00:39:50.694Z,982.49
2023-04-10T00:40:50.684Z,982.53
2023-04-10T00:41:50.677Z,982.49
2023-04-10T00:42:50.652Z,982.53
2023-04-10T00:43:50.650Z,982.53
2023-04-10T00:44:50.624Z,982.45
2023-04-10T00:45:50.907Z,982.47
2023-04-10T00:46:50.591Z,982.53
2023-04-10T00:47:50.831Z,982.38
2023-04-10T00:48:50.564Z,982.41
2023-04-10T00:49:50.556Z,982.35
2023-04-10T00:50:50.543Z,982.35
2023-04-10T00:51:50.526Z,982.31
2023-04-10T00:52:50.506Z,982.30
2023-04-10T00:53:50.518Z,982.35
2023-04-10T00:54:50.477Z,982.34
2023-04-10T00:55:50.464Z,982.34
2023-04-10T00:56:50.453Z,982.32
2023-04-10T00:57:50.450Z,982.32
2023-04-10T00:58:50.425Z,982.27
2023-04-10T00:59:50.408Z,982.28
2023-04-10T01:00:50.396Z,982.35
2023-04-10T01:01:50.581Z,982.34
2023-04-10T01:02:50.532Z,982.31
2023-04-10T01:03:50.436Z,982.32
2023-04-10T01:04:50.343Z,982.26
2023-04-10T01:05:50.332Z,982.23
2023-04-10T01:06:50.315Z,982.29
2023-04-10T01:07:50.305Z,982.27
2023-04-10T01:08:50.286Z,982.24
2023-04-10T01:09:50.275Z,982.19
2023-04-10T01:10:50.264Z,982.23
2023-04-10T01:11:50.242Z,982.27
2023-04-10T01:12:50.228Z,982.28
2023-04-10T01:13:50.211Z,982.26
2023-04-10T01:14:50.200Z,982.28
2023-04-10T01:15:50.198Z,982.29
2023-04-10T01:16:50.243Z,982.27
2023-04-10T01:17:50.227Z,982.39
2023-04-10T01:18:50.153Z,982.29
2023-04-10T01:19:50.134Z,982.28
2023-04-10T01:20:50.319Z,982.32
2023-04-10T01:21:50.107Z,982.37
2023-04-10T01:22:50.092Z,982.46
2023-04-10T01:23:50.079Z,982.41
2023-04-10T01:24:50.077Z,982.44
2023-04-10T01:25:50.066Z,982.47
2023-04-10T01:26:50.054Z,982.44
2023-04-10T01:27:50.036Z,982.44
2023-04-10T01:28:50.012Z,982.41
2023-04-10T01:29:50.013Z,982.35
2023-04-10T01:30:50.001Z,982.39
2023-04-10T01:31:49.980Z,982.37
2023-04-10T01:32:50.085Z,982.48
2023-04-10T01:33:49.976Z,982.39
2023-04-10T01:34:49.930Z,982.39
2023-04-10T01:35:49.943Z,982.43
2023-04-10T01:36:49.910Z,982.43
2023-04-10T01:37:49.894Z,982.44
2023-04-10T01:38:49.888Z,982.32
2023-04-10T01:39:49.867Z,982.46
2023-04-10T01:40:49.858Z,982.40
2023-04-10T01:41:49.844Z,982.46
2023-04-10T01:42:49.841Z,982.44
2023-04-10T01:43:49.829Z,982.44
2023-04-10T01:44:49.804Z,982.32
2023-04-10T01:45:49.792Z,982.29
2023-04-10T01:46:49.893Z,982.33
2023-04-10T01:47:49.784Z,982.28
2023-04-10T01:48:49.745Z,982.38
2023-04-10T01:49:49.756Z,982.34
2023-04-10T01:50:49.735Z,982.34
2023-04-10T01:51:49.712Z,982.31
2023-04-10T01:52:49.725Z,982.30
2023-04-10T01:53:49.685Z,982.30
2023-04-10T01:54:49.669Z,982.27
2023-04-10T01:55:49.667Z,982.24
2023-04-10T01:56:49.640Z,982.19
2023-04-10T01:57:49.649Z,982.23
2023-04-10T01:58:49.623Z,982.25
2023-04-10T01:59:49.606Z,982.23
2023-04-10T02:00:49.598Z,982.23
2023-04-10T02:01:49.734Z,982.25
2023-04-10T02:02:49.774Z,982.27
2023-04-10T02:03:49.630Z,982.26
2023-04-10T02:04:49.586Z,982.22
2023-04-10T02:05:49.553Z,982.22
2023-04-10T02:06:49.516Z,982.23
2023-04-10T02:07:49.505Z,982.28
2023-04-10T02:08:49.497Z,982.26
2023-04-10T02:09:49.476Z,982.23
2023-04-10T02:10:49.463Z,982.22
2023-04-10T02:11:49.460Z,982.21
2023-04-10T02:12:49.440Z,982.29
2023-04-10T02:13:49.424Z,982.23
2023-04-10T02:14:49.410Z,982.24
2023-04-10T02:15:49.416Z,982.27
2023-04-10T02:16:49.387Z,982.25
2023-04-10T02:17:49.388Z,982.26
2023-04-10T02:18:49.351Z,982.31
2023-04-10T02:19:49.356Z,982.29
2023-04-10T02:20:49.345Z,982.26
2023-04-10T02:21:49.645Z,982.29
2023-04-10T02:22:49.297Z,982.29
2023-04-10T02:23:49.296Z,982.27
2023-04-10T02:24:49.279Z,982.29
2023-04-10T02:25:49.276Z,982.24
2023-04-10T02:26:49.253Z,982.36
2023-04-10T02:27:49.236Z,982.31
2023-04-10T02:28:49.239Z,982.31
2023-04-10T02:29:49.205Z,982.25
2023-04-10T02:30:49.224Z,982.30
2023-04-10T02:31:49.180Z,982.26
2023-04-10T02:32:49.203Z,982.25
2023-04-10T02:33:49.152Z,982.24
2023-04-10T02:34:49.140Z,982.22
2023-04-10T02:35:49.156Z,982.16
2023-04-10T02:36:49.117Z,982.20
2023-04-10T02:37:49.131Z,982.24
2023-04-10T02:38:49.097Z,982.26
2023-04-10T02:39:49.075Z,982.33
2023-04-10T02:40:49.064Z,982.33
2023-04-10T02:41:49.045Z,982.26
2023-04-10T02:42:49.030Z,982.27
2023-04-10T02:43:49.018Z,982.26
2023-04-10T02:44:49.005Z,982.20
2023-04-10T02:45:49.012Z,982.27
2023-04-10T02:46:49.015Z,982.22
2023-04-10T02:47:49.046Z,982.24
2023-04-10T02:48:48.953Z,982.25
2023-04-10T02:49:48.940Z,982.32
2023-04-10T02:50:48.924Z,982.30
2023-04-10T02:51:48.911Z,982.30
2023-04-10T02:52:48.900Z,982.32
2023-04-10T02:53:48.907Z,982.39
2023-04-10T02:54:48.880Z,982.36
2023-04-10T02:55:48.864Z,982.44
2023-04-10T02:56:48.844Z,982.43
2023-04-10T02:57:48.836Z,982.45
2023-04-10T02:58:48.821Z,982.41
2023-04-10T02:59:48.810Z,982.36
2023-04-10T03:00:48.806Z,982.37
2023-04-10T03:01:48.830Z,982.49
2023-04-10T03:02:49.080Z,982.42
2023-04-10T03:03:48.833Z,982.39
2023-04-10T03:04:48.802Z,982.41
2023-04-10T03:05:48.733Z,982.36
2023-04-10T03:06:48.716Z,982.50
2023-04-10T03:07:48.696Z,982.60
2023-04-10T03:08:48.685Z,982.45
2023-04-10T03:09:48.690Z,982.50
2023-04-10T03:10:48.680Z,982.47
2023-04-10T03:11:48.653Z,982.55
2023-04-10T03:12:48.667Z,982.59
2023-04-10T03:13:48.614Z,982.52
2023-04-10T03:14:48.606Z,982.49
2023-04-10T03:15:48.614Z,982.52
2023-04-10T03:16:48.975Z,982.48
2023-04-10T03:17:48.605Z,982.49
2023-04-10T03:18:48.559Z,982.48
2023-04-10T03:19:48.532Z,982.46
2023-04-10T03:20:48.523Z,982.47
2023-04-10T03:21:48.509Z,982.45
2023-04-10T03:22:48.494Z,982.42
2023-04-10T03:23:48.486Z,982.36
2023-04-10T03:24:48.470Z,982.43
2023-04-10T03:25:48.477Z,982.34
2023-04-10T03:26:48.438Z,982.42
2023-04-10T03:27:48.434Z,982.48
2023-04-10T03:28:48.404Z,982.45
2023-04-10T03:29:48.402Z,982.46
2023-04-10T03:30:48.380Z,982.43
2023-04-10T03:31:48.452Z,982.41
2023-04-10T03:32:48.368Z,982.41
2023-04-10T03:33:48.352Z,982.33
2023-04-10T03:34:48.330Z,982.34
2023-04-10T03:35:48.352Z,982.29
2023-04-10T03:36:48.309Z,982.27
2023-04-10T03:37:48.287Z,982.30
2023-04-10T03:38:48.277Z,982.25
2023-04-10T03:39:48.267Z,982.24
2023-04-10T03:40:48.268Z,982.28
2023-04-10T03:41:48.272Z,982.29
2023-04-10T03:42:48.221Z,982.31
2023-04-10T03:43:48.211Z,982.27
2023-04-10T03:44:48.196Z,982.24
2023-04-10T03:45:48.194Z,982.18
2023-04-10T03:46:48.268Z,982.19
2023-04-10T03:47:48.224Z,982.11
2023-04-10T03:48:48.138Z,982.20
2023-04-10T03:49:48.125Z,982.18
2023-04-10T03:50:48.360Z,982.17
2023-04-10T03:51:48.108Z,982.14
2023-04-10T03:52:48.079Z,982.13
2023-04-10T03:53:48.084Z,982.15
2023-04-10T03:54:48.054Z,982.14
2023-04-10T03:55:48.053Z,982.09
2023-04-10T03:56:48.028Z,982.17
2023-04-10T03:57:48.042Z,982.19
2023-04-10T03:58:48.006Z,982.18
2023-04-10T03:59:47.998Z,982.25
2023-04-10T04:00:47.987Z,982.20
2023-04-10T04:01:48.029Z,982.22
2023-04-10T04:02:48.014Z,982.22
2023-04-10T04:03:48.028Z,982.23
2023-04-10T04:04:47.983Z,982.20
2023-04-10T04:05:47.912Z,982.17
2023-04-10T04:06:47.891Z,982.14
2023-04-10T04:07:47.882Z,982.19
2023-04-10T04:08:47.866Z,982.09
2023-04-10T04:09:47.862Z,982.15
2023-04-10T04:10:47.834Z,982.14
2023-04-10T04:11:47.828Z,982.09
2023-04-10T04:12:47.814Z,982.09
2023-04-10T04:13:47.827Z,982.17
2023-04-10T04:14:47.801Z,982.07
2023-04-10T04:15:47.769Z,982.08
2023-04-10T04:16:47.794Z,982.13
2023-04-10T04:17:47.776Z,982.05
2023-04-10T04:18:47.730Z,982.01
2023-04-10T04:19:47.721Z,982.01
2023-04-10T04:20:47.712Z,982.01
2023-04-10T04:21:47.700Z,982.00
2023-04-10T04:22:47.683Z,982.05
2023-04-10T04:23:48.113Z,982.02
2023-04-10T04:24:47.654Z,981.99
2023-04-10T04:25:47.636Z,982.03
2023-04-10T04:26:47.625Z,982.01
2023-04-10T04:27:47.613Z,982.01
2023-04-10T04:28:47.599Z,981.93
2023-04-10T04:29:47.608Z,982.00
2023-04-10T04:30:47.572Z,981.98
2023-04-10T04:31:47.687Z,981.93
2023-04-10T04:32:47.591Z,981.91
2023-04-10T04:33:47.537Z,981.94
2023-04-10T04:34:47.536Z,981.93
2023-04-10T04:35:47.527Z,981.94
2023-04-10T04:36:47.491Z,981.91
2023-04-10T04:37:47.484Z,981.99
2023-04-10T04:38:47.462Z,981.96
2023-04-10T04:39:47.450Z,981.95
2023-04-10T04:40:47.435Z,981.99
2023-04-10T04:41:47.427Z,982.05
2023-04-10T04:42:47.413Z,982.02
2023-04-10T04:43:47.400Z,982.02
2023-04-10T04:44:47.393Z,982.01
2023-04-10T04:45:47.675Z,982.00
2023-04-10T04:46:47.362Z,982.01
2023-04-10T04:47:47.383Z,981.92
2023-04-10T04:48:47.340Z,981.92
2023-04-10T04:49:47.324Z,981.98
2023-04-10T04:50:47.417Z,981.92
2023-04-10T04:51:47.298Z,981.87
2023-04-10T04:52:47.285Z,981.95
2023-04-10T04:53:47.264Z,981.89
2023-04-10T04:54:47.248Z,981.98
2023-04-10T04:55:47.237Z,981.96
2023-04-10T04:56:47.222Z,982.00
2023-04-10T04:57:47.213Z,981.86
2023-04-10T04:58:47.206Z,981.94
2023-04-10T04:59:47.188Z,981.89
2023-04-10T05:00:47.180Z,981.88
2023-04-10T05:01:47.251Z,981.91
2023-04-10T05:02:47.260Z,981.88
2023-04-10T05:03:47.268Z,981.92
2023-04-10T05:04:47.122Z,981.90
2023-04-10T05:05:47.101Z,982.01
2023-04-10T05:06:47.084Z,981.98
2023-04-10T05:07:47.072Z,981.92
2023-04-10T05:08:47.064Z,981.97
2023-04-10T05:09:47.064Z,981.98
2023-04-10T05:10:47.037Z,981.97
2023-04-10T05:11:47.023Z,981.97
2023-04-10T05:12:47.023Z,981.96
2023-04-10T05:13:47.003Z,981.94
2023-04-10T05:14:46.981Z,981.91
2023-04-10T05:15:47.029Z,981.99
2023-04-10T05:16:46.965Z,981.91
2023-04-10T05:17:47.102Z,981.90
2023-04-10T05:18:47.273Z,982.03
2023-04-10T05:19:46.911Z,982.01
2023-04-10T05:20:46.899Z,981.92
2023-04-10T05:21:46.899Z,981.99
2023-04-10T05:22:46.873Z,982.00
2023-04-10T05:23:46.858Z,981.99
2023-04-10T05:24:46.856Z,982.04
2023-04-10T05:25:46.829Z,982.08
2023-04-10T05:26:46.823Z,982.03
2023-04-10T05:27:46.907Z,982.08
2023-04-10T05:28:46.788Z,982.05
2023-04-10T05:29:46.785Z,982.04
2023-04-10T05:30:46.786Z,982.12
2023-04-10T05:31:46.762Z,982.07
2023-04-10T05:32:46.777Z,982.16
2023-04-10T05:33:46.740Z,982.14
2023-04-10T05:34:46.706Z,982.17
2023-04-10T05:35:46.712Z,982.16
2023-04-10T05:36:46.690Z,982.24
2023-04-10T05:37:46.673Z,982.13
2023-04-10T05:38:46.657Z,982.15
2023-04-10T05:39:46.646Z,982.14
2023-04-10T05:40:46.629Z,982.12
2023-04-10T05:41:46.714Z,982.07
2023-04-10T05:42:46.603Z,982.10
2023-04-10T05:43:46.593Z,982.12
2023-04-10T05:44:46.575Z,982.13
2023-04-10T05:45:46.592Z,982.13
2023-04-10T05:46:46.672Z,982.13
2023-04-10T05:47:46.600Z,982.14
2023-04-10T05:48:46.537Z,982.14
2023-04-10T05:49:46.544Z,982.19
2023-04-10T05:50:46.499Z,982.21
2023-04-10T05:51:46.484Z,982.18
2023-04-10T05:52:46.473Z,982.18
2023-04-10T05:53:46.457Z,982.13
2023-04-10T05:54:46.450Z,982.09
2023-04-10T05:55:46.426Z,982.12
2023-04-10T05:56:46.411Z,982.12
2023-04-10T05:57:46.404Z,982.13
2023-04-10T05:58:46.390Z,982.11
2023-04-10T05:59:46.387Z,982.10
2023-04-10T06:00:46.359Z,982.11
2023-04-10T06:01:46.390Z,982.13
2023-04-10T06:02:46.460Z,982.09
2023-04-10T06:03:46.591Z,982.07
2023-04-10T06:04:46.411Z,982.02
2023-04-10T06:05:46.395Z,982.03
2023-04-10T06:06:46.275Z,982.08
2023-04-10T06:07:46.268Z,982.10
2023-04-10T06:08:46.248Z,982.02
2023-04-10T06:09:46.236Z,982.06
2023-04-10T06:10:46.247Z,982.07
2023-04-10T06:11:46.213Z,982.06
2023-04-10T06:12:46.206Z,982.02
2023-04-10T06:13:46.182Z,982.06
2023-04-10T06:14:46.183Z,981.97
2023-04-10T06:15:46.222Z,982.01
2023-04-10T06:16:46.151Z,981.94
2023-04-10T06:17:46.151Z,982.00
2023-04-10T06:18:46.111Z,981.99
2023-04-10T06:19:46.101Z,981.98
2023-04-10T06:20:46.085Z,981.99
2023-04-10T06:21:46.099Z,982.03
2023-04-10T06:22:46.057Z,981.95
2023-04-10T06:23:46.173Z,981.91
2023-04-10T06:24:46.032Z,981.90
2023-04-10T06:25:46.023Z,981.91
2023-04-10T06:26:46.003Z,981.89
2023-04-10T06:27:46.003Z,981.88
2023-04-10T06:28:46.330Z,981.89
2023-04-10T06:29:45.987Z,981.86
2023-04-10T06:30:45.959Z,981.93
2023-04-10T06:31:46.033Z,981.96
2023-04-10T06:32:45.960Z,981.92
2023-04-10T06:33:45.920Z,981.92
2023-04-10T06:34:45.918Z,981.83
2023-04-10T06:35:45.901Z,981.85
2023-04-10T06:36:45.877Z,981.82
2023-04-10T06:37:45.889Z,981.85
2023-04-10T06:38:45.850Z,981.75
2023-04-10T06:39:45.835Z,981.74
2023-04-10T06:40:45.820Z,981.78
2023-04-10T06:41:45.822Z,981.73
2023-04-10T06:42:45.790Z,981.72
2023-04-10T06:43:45.787Z,981.66
2023-04-10T06:44:45.767Z,981.63
2023-04-10T06:45:45.848Z,981.58
2023-04-10T06:46:45.794Z,981.59
2023-04-10T06:47:45.751Z,981.66
2023-04-10T06:48:45.724Z,981.62
2023-04-10T06:49:45.689Z,981.59
2023-04-10T06:50:45.709Z,981.62
2023-04-10T06:51:45.688Z,981.60
2023-04-10T06:52:45.776Z,981.58
2023-04-10T06:53:45.719Z,981.55
2023-04-10T06:54:45.633Z,981.50
2023-04-10T06:55:45.689Z,981.44
2023-04-10T06:56:45.603Z,981.49
2023-04-10T06:57:45.597Z,981.44
2023-04-10T06:58:45.573Z,981.44
2023-04-10T06:59:45.570Z,981.40
2023-04-10T07:00:45.576Z,981.39
2023-04-10T07:01:45.560Z,981.34
2023-04-10T07:02:45.533Z,981.30
2023-04-10T07:03:45.547Z,981.29
2023-04-10T07:04:45.501Z,981.29
2023-04-10T07:05:45.481Z,981.27
2023-04-10T07:06:45.462Z,981.20
2023-04-10T07:07:45.459Z,981.21
2023-04-10T07:08:45.438Z,981.19
2023-04-10T07:09:45.447Z,981.21
2023-04-10T07:10:45.422Z,981.18
2023-04-10T07:11:45.407Z,981.12
2023-04-10T07:12:45.384Z,981.15
2023-04-10T07:13:45.371Z,981.10
2023-04-10T07:14:45.358Z,981.13
2023-04-10T07:15:45.335Z,981.05
2023-04-10T07:16:45.409Z,981.09
2023-04-10T07:17:45.337Z,980.98
2023-04-10T07:18:47.303Z,981.03
2023-04-10T07:19:45.292Z,981.02
2023-04-10T07:20:45.276Z,981.03
2023-04-10T07:21:45.261Z,981.01
2023-04-10T07:22:45.244Z,981.01
2023-04-10T07:23:45.240Z,981.00
2023-04-10T07:24:45.221Z,980.92
2023-04-10T07:25:45.230Z,980.99
2023-04-10T07:26:45.197Z,980.90
2023-04-10T07:27:45.175Z,980.99
2023-04-10T07:28:45.168Z,980.93
2023-04-10T07:29:45.147Z,980.96
2023-04-10T07:30:45.150Z,980.98
2023-04-10T07:31:45.171Z,981.04
2023-04-10T07:32:45.246Z,981.01
2023-04-10T07:33:45.143Z,980.97
2023-04-10T07:34:45.084Z,980.98
2023-04-10T07:35:45.138Z,980.95
2023-04-10T07:36:46.072Z,980.97
2023-04-10T07:37:45.047Z,980.98
2023-04-10T07:38:45.026Z,980.96
2023-04-10T07:39:45.032Z,980.91
2023-04-10T07:40:44.998Z,980.91
2023-04-10T07:41:45.013Z,980.95
2023-04-10T07:42:44.974Z,980.91
2023-04-10T07:43:44.967Z,980.87
2023-04-10T07:44:44.961Z,980.88
2023-04-10T07:45:44.970Z,980.87
2023-04-10T07:46:44.952Z,980.92
2023-04-10T07:47:44.947Z,980.82
2023-04-10T07:48:44.895Z,980.85
2023-04-10T07:49:44.883Z,980.86
2023-04-10T07:50:44.867Z,980.82
2023-04-10T07:51:44.872Z,980.83
2023-04-10T07:52:44.844Z,980.82
2023-04-10T07:53:44.837Z,980.91
2023-04-10T07:54:44.826Z,980.89
2023-04-10T07:55:44.823Z,980.80
2023-04-10T07:56:44.789Z,980.81
2023-04-10T07:57:44.804Z,980.89
2023-04-10T07:58:44.764Z,980.85
2023-04-10T07:59:44.755Z,980.81
2023-04-10T08:00:44.736Z,980.77
2023-04-10T08:01:44.775Z,980.79
2023-04-10T08:02:44.821Z,980.71
2023-04-10T08:03:44.980Z,980.75
2023-04-10T08:04:44.784Z,980.66
2023-04-10T08:05:44.665Z,980.70
2023-04-10T08:06:44.662Z,980.65
2023-04-10T08:07:44.641Z,980.62
2023-04-10T08:08:44.632Z,980.67
2023-04-10T08:09:44.619Z,980.62
2023-04-10T08:10:44.607Z,980.66
2023-04-10T08:11:44.603Z,980.57
2023-04-10T08:12:44.581Z,980.62
2023-04-10T08:13:44.582Z,980.59
2023-04-10T08:14:44.549Z,980.65
2023-04-10T08:15:44.533Z,980.60
2023-04-10T08:16:44.578Z,980.54
2023-04-10T08:17:44.529Z,980.58
2023-04-10T08:18:44.489Z,980.53
2023-04-10T08:19:44.480Z,980.56
2023-04-10T08:20:44.473Z,980.53
2023-04-10T08:21:44.449Z,980.45
2023-04-10T08:22:44.445Z,980.50
2023-04-10T08:23:44.426Z,980.50
2023-04-10T08:24:44.418Z,980.40
2023-04-10T08:25:44.398Z,980.52
2023-04-10T08:26:44.391Z,980.50
2023-04-10T08:27:44.872Z,980.46
2023-04-10T08:28:44.360Z,980.44
2023-04-10T08:29:44.377Z,980.43
2023-04-10T08:30:44.364Z,980.44
2023-04-10T08:31:44.330Z,980.44
2023-04-10T08:32:44.327Z,980.43
2023-04-10T08:33:44.301Z,980.43
2023-04-10T08:34:44.284Z,980.48
2023-04-10T08:35:44.298Z,980.49
2023-04-10T08:36:44.268Z,980.45
2023-04-10T08:37:49.625Z,980.48
2023-04-10T08:38:45.284Z,980.45
2023-04-10T08:39:44.218Z,980.46
2023-04-10T08:40:44.213Z,980.46
2023-04-10T08:41:44.199Z,980.50
2023-04-10T08:42:44.234Z,980.45
2023-04-10T08:43:44.175Z,980.47
2023-04-10T08:44:44.163Z,980.45
2023-04-10T08:45:44.173Z,980.39
2023-04-10T08:46:44.132Z,980.33
2023-04-10T08:47:44.129Z,980.38
2023-04-10T08:48:44.107Z,980.36
2023-04-10T08:49:44.086Z,980.42
2023-04-10T08:50:44.082Z,980.37
2023-04-10T08:51:44.056Z,980.37
2023-04-10T08:52:44.058Z,980.43
2023-04-10T08:53:44.048Z,980.35
2023-04-10T08:54:44.030Z,980.43
2023-04-10T08:55:44.013Z,980.38
2023-04-10T08:56:44.000Z,980.35
2023-04-10T08:57:50.815Z,980.33
2023-04-10T08:58:45.006Z,980.39
2023-04-10T08:59:43.963Z,980.39
2023-04-10T09:00:43.950Z,980.33
2023-04-10T09:01:43.986Z,980.32
2023-04-10T09:02:44.017Z,980.23
2023-04-10T09:03:44.117Z,980.26
2023-04-10T09:04:43.920Z,980.25
2023-04-10T09:05:43.886Z,980.23
2023-04-10T09:06:43.873Z,980.25
2023-04-10T09:07:43.855Z,980.25
2023-04-10T09:08:43.848Z,980.29
2023-04-10T09:09:43.838Z,980.18
2023-04-10T09:10:43.823Z,980.28
2023-04-10T09:11:43.806Z,980.28
2023-04-10T09:12:43.794Z,980.24
2023-04-10T09:13:43.810Z,980.17
2023-04-10T09:14:43.772Z,980.16
2023-04-10T09:15:43.773Z,980.14
2023-04-10T09:16:43.742Z,980.24
2023-04-10T09:17:43.804Z,980.24
2023-04-10T09:18:43.716Z,980.15
2023-04-10T09:19:43.703Z,980.17
2023-04-10T09:20:43.696Z,980.11
2023-04-10T09:21:43.673Z,980.13
2023-04-10T09:22:43.668Z,980.19
2023-04-10T09:23:43.668Z,980.10
2023-04-10T09:24:43.666Z,980.14
2023-04-10T09:25:43.629Z,980.14
2023-04-10T09:26:43.625Z,980.09
2023-04-10T09:27:43.598Z,980.06
2023-04-10T09:28:43.599Z,980.09
2023-04-10T09:29:43.570Z,980.07
2023-04-10T09:30:43.870Z,980.10
2023-04-10T09:31:43.692Z,979.99
2023-04-10T09:32:43.569Z,980.00
2023-04-10T09:33:43.549Z,979.98
2023-04-10T09:34:43.517Z,980.00
2023-04-10T09:35:43.508Z,979.94
2023-04-10T09:36:43.580Z,979.82
2023-04-10T09:37:43.483Z,979.82
2023-04-10T09:38:43.463Z,979.85
2023-04-10T09:39:43.526Z,979.83
2023-04-10T09:40:43.445Z,979.75
2023-04-10T09:41:43.419Z,979.79
2023-04-10T09:42:43.406Z,979.75
2023-04-10T09:43:43.395Z,979.64
2023-04-10T09:44:43.385Z,979.67
2023-04-10T09:45:43.374Z,979.71
2023-04-10T09:46:43.429Z,979.64
2023-04-10T09:47:43.391Z,979.70
2023-04-10T09:48:43.347Z,979.65
2023-04-10T09:49:43.344Z,979.56
2023-04-10T09:50:43.316Z,979.55
2023-04-10T09:51:43.298Z,979.53
2023-04-10T09:52:43.283Z,979.46
2023-04-10T09:53:43.278Z,979.53
2023-04-10T09:54:43.263Z,979.49
2023-04-10T09:55:43.251Z,979.42
2023-04-10T09:56:43.237Z,979.41
2023-04-10T09:57:43.223Z,979.41
2023-04-10T09:58:43.218Z,979.33
2023-04-10T09:59:43.207Z,979.33
2023-04-10T10:00:43.200Z,979.30
2023-04-10T10:01:43.222Z,979.32
2023-04-10T10:02:43.246Z,979.27
2023-04-10T10:03:43.182Z,979.29
2023-04-10T10:04:43.190Z,979.29
2023-04-10T10:05:43.160Z,979.21
2023-04-10T10:06:43.120Z,979.16
2023-04-10T10:07:43.097Z,979.17
2023-04-10T10:08:43.146Z,979.22
2023-04-10T10:09:43.084Z,979.17
2023-04-10T10:10:43.070Z,979.11
2023-04-10T10:11:43.300Z,979.13
2023-04-10T10:12:43.247Z,979.17
2023-04-10T10:13:43.283Z,979.15
2023-04-10T10:14:43.171Z,979.18
2023-04-10T10:15:43.004Z,979.16
2023-04-10T10:16:43.092Z,979.07
2023-04-10T10:17:43.061Z,979.09
2023-04-10T10:18:42.975Z,979.08
2023-04-10T10:19:42.964Z,979.10
2023-04-10T10:20:42.946Z,979.03
2023-04-10T10:21:42.961Z,979.01
2023-04-10T10:22:42.927Z,979.12
2023-04-10T10:23:42.911Z,978.99
2023-04-10T10:24:42.916Z,978.96
2023-04-10T10:25:42.889Z,978.98
2023-04-10T10:26:42.882Z,978.93
2023-04-10T10:27:42.870Z,978.92
2023-04-10T10:28:42.876Z,978.91
2023-04-10T10:29:42.841Z,978.91
2023-04-10T10:30:42.836Z,978.83
2023-04-10T10:31:42.868Z,978.85
2023-04-10T10:32:42.812Z,978.82
2023-04-10T10:33:42.793Z,978.82
2023-04-10T10:34:42.810Z,978.74
2023-04-10T10:35:42.775Z,978.78
2023-04-10T10:36:42.794Z,978.72
2023-04-10T10:37:42.783Z,978.77
2023-04-10T10:38:42.736Z,978.66
2023-04-10T10:39:42.733Z,978.68
2023-04-10T10:40:42.717Z,978.71
2023-04-10T10:41:42.707Z,978.67
2023-04-10T10:42:42.696Z,978.56
2023-04-10T10:43:42.685Z,978.65
2023-04-10T10:44:42.738Z,978.56
2023-04-10T10:45:42.720Z,978.61
2023-04-10T10:46:42.641Z,978.58
2023-04-10T10:47:42.638Z,978.56
2023-04-10T10:48:42.616Z,978.53
2023-04-10T10:49:42.598Z,978.56
2023-04-10T10:50:42.586Z,978.57
2023-04-10T10:51:42.578Z,978.57
2023-04-10T10:52:42.569Z,978.60
2023-04-10T10:53:42.587Z,978.60
2023-04-10T10:54:57.028Z,978.53
2023-04-10T10:55:43.558Z,978.53
2023-04-10T10:56:42.522Z,978.55
2023-04-10T10:57:42.527Z,978.53
2023-04-10T10:58:42.490Z,978.54
2023-04-10T10:59:42.476Z,978.58
2023-04-10T11:00:42.507Z,978.63
2023-04-10T11:01:42.535Z,978.60
2023-04-10T11:02:42.541Z,978.61
2023-04-10T11:03:42.534Z,978.65
2023-04-10T11:04:42.416Z,978.62
2023-04-10T11:05:42.396Z,978.62
2023-04-10T11:06:43.555Z,978.60
2023-04-10T11:07:42.478Z,978.56
2023-04-10T11:08:42.380Z,978.55
2023-04-10T11:09:42.372Z,978.54
2023-04-10T11:10:42.334Z,978.44
2023-04-10T11:11:42.330Z,978.52
2023-04-10T11:12:42.311Z,978.40
2023-04-10T11:13:42.309Z,978.41
2023-04-10T11:14:42.297Z,978.42
2023-04-10T11:15:42.272Z,978.48
2023-04-10T11:16:42.285Z,978.34
2023-04-10T11:17:42.287Z,978.36
2023-04-10T11:18:42.439Z,978.32
2023-04-10T11:19:42.214Z,978.34
2023-04-10T11:20:42.213Z,978.31
2023-04-10T11:21:42.195Z,978.29
2023-04-10T11:22:42.181Z,978.20
2023-04-10T11:23:42.170Z,978.20
2023-04-10T11:24:42.157Z,978.18
2023-04-10T11:25:42.177Z,978.21
2023-04-10T11:26:42.132Z,978.15
2023-04-10T11:27:42.183Z,978.22
2023-04-10T11:28:42.098Z,978.16
2023-04-10T11:29:42.139Z,978.12
2023-04-10T11:30:42.075Z,978.23
2023-04-10T11:31:42.112Z,978.15
2023-04-10T11:32:42.087Z,978.13
2023-04-10T11:33:42.055Z,978.13
2023-04-10T11:34:42.179Z,978.10
2023-04-10T11:35:42.041Z,978.15
2023-04-10T11:36:42.014Z,978.07
2023-04-10T11:37:41.991Z,978.08
2023-04-10T11:38:41.974Z,978.11
2023-04-10T11:39:42.317Z,978.11
2023-04-10T11:40:41.950Z,978.13
2023-04-10T11:41:41.955Z,978.03
2023-04-10T11:42:41.923Z,978.12
2023-04-10T11:43:41.911Z,978.06
2023-04-10T11:44:42.159Z,978.07
2023-04-10T11:45:41.934Z,978.12
2023-04-10T11:46:41.883Z,978.03
2023-04-10T11:47:41.880Z,978.03
2023-04-10T11:48:41.854Z,978.10
2023-04-10T11:49:41.835Z,978.10
2023-04-10T11:50:41.864Z,978.13
2023-04-10T11:51:41.811Z,978.12
2023-04-10T11:52:41.819Z,978.05
2023-04-10T11:53:41.819Z,978.12
2023-04-10T11:54:41.783Z,978.19
2023-04-10T11:55:41.764Z,978.14
2023-04-10T11:56:41.753Z,978.18
2023-04-10T11:57:41.759Z,978.10
2023-04-10T11:58:41.724Z,978.11
2023-04-10T11:59:41.730Z,977.95
2023-04-10T12:00:41.701Z,977.92
2023-04-10T12:01:42.981Z,977.94
2023-04-10T12:02:41.780Z,977.90
2023-04-10T12:03:41.777Z,977.84
2023-04-10T12:04:41.776Z,977.80
2023-04-10T12:05:41.640Z,977.83
2023-04-10T12:06:41.621Z,977.81
2023-04-10T12:07:41.612Z,977.83
2023-04-10T12:08:41.626Z,977.84
2023-04-10T12:09:41.585Z,977.84
2023-04-10T12:10:41.573Z,977.83
2023-04-10T12:11:41.565Z,977.80
2023-04-10T12:12:41.550Z,977.85
2023-04-10T12:13:41.567Z,977.89
2023-04-10T12:14:41.536Z,977.79
2023-04-10T12:15:41.522Z,977.74
2023-04-10T12:16:41.503Z,977.75
2023-04-10T12:17:41.517Z,977.72
2023-04-10T12:18:41.482Z,977.64
2023-04-10T12:19:41.480Z,977.64
2023-04-10T12:20:41.447Z,977.61
2023-04-10T12:21:41.444Z,977.55
2023-04-10T12:22:41.430Z,977.50
2023-04-10T12:23:41.445Z,977.59
2023-04-10T12:24:41.406Z,977.60
2023-04-10T12:25:41.394Z,977.56
2023-04-10T12:26:41.372Z,977.69
2023-04-10T12:27:41.367Z,977.61
2023-04-10T12:28:41.364Z,977.71